Time;durP1;ratioP1;P1;durP2;ratioP2;P2;SDS_P1;SDS_P2;PMS_P1;PMS_P2;Temp;Humidity;BMP_temperature;BMP_pressure;BME280_temperature;BME280_humidity;BME280_pressure;Samples;Min_cycle;Max_cycle;Signal;HPM_P1;HPM_P2
2021/12/17 05:33:15;;;;;;;9.20;8.03;;;;;;;1.07;100.00;92753.38;4949611;23;20615;-73
2021/12/17 05:36:15;;;;;;;9.00;8.33;;;;;;;1.04;100.00;92760.81;4913378;28;20210;-73
2021/12/17 05:38:44;;;;;;;10.97;10.17;;;;;;;0.57;100.00;92707.16;4908084;28;20610;-73
2021/12/17 05:41:12;;;;;;;16.83;14.23;;;;;;;0.84;100.00;92751.78;4916440;28;20255;-73
2021/12/17 05:43:39;;;;;;;28.40;20.47;;;;;;;0.78;100.00;92749.34;4907378;28;20570;-74
2021/12/17 05:46:11;;;;;;;72.43;41.33;;;;;;;0.54;100.00;92732.03;4912170;28;20530;-74
2021/12/17 05:48:41;;;;;;;14.93;13.53;;;;;;;0.25;100.00;92679.13;4908139;28;20603;-72
2021/12/17 05:51:10;;;;;;;6.17;5.67;;;;;;;0.26;100.00;92669.19;4907997;28;20621;-73
2021/12/17 05:53:38;;;;;;;19.97;14.83;;;;;;;0.57;100.00;92722.06;4900660;28;20206;-73
2021/12/17 05:56:06;;;;;;;16.27;13.90;;;;;;;0.45;100.00;92714.69;4913073;28;20605;-74
2021/12/17 05:58:33;;;;;;;16.80;11.17;;;;;;;0.41;100.00;92742.84;4917195;28;20549;-74
2021/12/17 06:01:01;;;;;;;9.37;8.70;;;;;;;0.14;100.00;92706.50;4910447;28;20214;-72
2021/12/17 06:03:29;;;;;;;9.07;8.37;;;;;;;0.41;100.00;92740.34;4916704;28;20553;-73
2021/12/17 06:05:58;;;;;;;8.43;7.10;;;;;;;0.23;100.00;92718.88;4907992;28;20206;-73
2021/12/17 06:08:25;;;;;;;13.30;11.07;;;;;;;0.27;100.00;92719.72;4915312;28;20201;-73
2021/12/17 06:10:53;;;;;;;12.57;11.07;;;;;;;0.35;100.00;92731.25;4913556;28;20617;-73
2021/12/17 06:13:20;;;;;;;15.30;13.73;;;;;;;0.42;100.00;92732.06;4914181;28;20206;-73
2021/12/17 06:15:47;;;;;;;13.07;11.70;;;;;;;0.45;100.00;92732.09;4913648;28;20641;-74
2021/12/17 06:18:15;;;;;;;15.37;13.70;;;;;;;0.32;100.00;92708.94;4918549;28;20473;-73
2021/12/17 06:20:43;;;;;;;15.17;13.77;;;;;;;0.15;100.00;92680.00;4917035;28;20275;-72
2021/12/17 06:23:12;;;;;;;31.07;15.50;;;;;;;0.54;100.00;92727.06;4916404;28;20591;-72
2021/12/17 06:25:39;;;;;;;32.83;18.10;;;;;;;0.36;100.00;92704.75;4915502;28;20563;-73
2021/12/17 06:28:06;;;;;;;32.40;17.83;;;;;;;0.51;100.00;92738.69;4918735;28;20592;-73
2021/12/17 06:30:34;;;;;;;33.13;19.70;;;;;;;0.52;100.00;92733.69;4912500;28;20495;-73
2021/12/17 06:33:01;;;;;;;34.23;22.60;;;;;;;0.40;100.00;92728.75;4916624;28;20205;-72
2021/12/17 06:35:28;;;;;;;24.73;17.77;;;;;;;0.31;100.00;92734.59;4915241;28;20503;-72
2021/12/17 06:37:56;;;;;;;27.53;18.83;;;;;;;0.25;100.00;92711.41;4918856;28;20456;-74
2021/12/17 06:40:24;;;;;;;26.10;17.33;;;;;;;0.37;100.00;92719.66;4917138;28;20558;-73
2021/12/17 06:42:52;;;;;;;35.47;19.40;;;;;;;0.29;100.00;92715.53;4918096;28;20509;-73
2021/12/17 06:45:25;;;;;;;32.77;19.60;;;;;;;-0.13;100.00;92680.06;4914780;28;20629;-73
2021/12/17 06:47:58;;;;;;;27.23;18.37;;;;;;;0.14;100.00;92713.09;4916825;28;20513;-73
2021/12/17 06:59:02;;;;;;;21.33;17.27;;;;;;;0.56;100.00;92714.66;4910084;28;20465;-72
2021/12/17 07:07:53;;;;;;;23.33;15.03;;;;;;;0.72;100.00;92711.25;4909245;28;20666;-72
2021/12/17 07:21:18;;;;;;;27.90;21.23;;;;;;;0.91;100.00;92745.13;4917639;28;20630;-73
2021/12/17 07:24:14;;;;;;;45.03;26.10;;;;;;;0.96;100.00;92735.19;4909827;28;20565;-72
2021/12/17 07:32:41;;;;;;;16.33;12.53;;;;;;;1.15;100.00;92774.03;4916772;28;20702;-72
2021/12/17 07:35:42;;;;;;;29.07;21.03;;;;;;;1.11;100.00;92767.44;4912595;28;20616;-72
2021/12/17 07:40:54;;;;;;;18.83;12.73;;;;;;;1.19;100.00;92759.06;4912321;28;20585;-72
2021/12/17 07:43:35;;;;;;;23.77;14.10;;;;;;;1.12;100.00;92719.34;4912071;28;20567;-72
2021/12/17 07:46:05;;;;;;;20.23;15.97;;;;;;;1.37;100.00;92727.44;4907857;28;20219;-73
2021/12/17 07:48:34;;;;;;;16.57;14.17;;;;;;;1.47;100.00;92714.09;4919217;28;20244;-72
2021/12/17 07:51:04;;;;;;;35.90;19.57;;;;;;;1.51;100.00;92716.59;4918296;28;20633;-72
2021/12/17 07:53:32;;;;;;;33.97;18.43;;;;;;;1.47;100.00;92692.53;4912523;28;20206;-74
2021/12/17 07:56:00;;;;;;;20.07;13.90;;;;;;;1.58;100.00;92737.25;4910249;28;20474;-73
2021/12/17 07:58:28;;;;;;;23.57;14.47;;;;;;;1.51;100.00;92726.53;4918351;28;20565;-73
2021/12/17 08:00:56;;;;;;;20.10;13.90;;;;;;;1.43;100.00;92714.97;4918200;28;20454;-74
2021/12/17 08:03:25;;;;;;;31.10;14.93;;;;;;;1.38;100.00;92700.06;4913223;28;20214;-73
2021/12/17 08:05:54;;;;;;;16.57;14.57;;;;;;;1.33;100.00;92681.88;4910560;28;20614;-72
2021/12/17 08:08:21;;;;;;;11.90;10.80;;;;;;;1.41;100.00;92695.06;4914756;28;20497;-72
2021/12/17 08:10:49;;;;;;;17.30;10.40;;;;;;;1.43;100.00;92673.50;4902346;28;20699;-73
2021/12/17 08:13:21;;;;;;;11.23;9.77;;;;;;;1.03;100.00;92585.88;4903245;28;20510;-73
2021/12/17 08:16:06;;;;;;;14.50;9.07;;;;;;;1.74;100.00;92676.56;4916405;28;20593;-75
2021/12/17 08:18:52;;;;;;;7.13;6.50;;;;;;;1.90;100.00;92680.56;4913472;28;20572;-73
2021/12/17 08:27:07;;;;;;;6.47;6.20;;;;;;;2.33;100.00;92680.94;4910122;28;20266;-72
2021/12/17 08:29:51;;;;;;;11.87;10.57;;;;;;;2.53;100.00;92685.72;4910201;28;20587;-73
2021/12/17 08:32:19;;;;;;;9.27;8.63;;;;;;;2.64;100.00;92710.53;4910674;28;20604;-73
2021/12/17 08:34:48;;;;;;;15.77;11.90;;;;;;;2.73;99.42;92695.44;4910930;28;20245;-73
2021/12/17 08:37:16;;;;;;;12.07;11.10;;;;;;;2.75;99.40;92697.06;4910392;28;20514;-74
2021/12/17 08:39:43;;;;;;;13.37;11.23;;;;;;;2.74;98.62;92707.91;4909733;28;20534;-73
2021/12/17 08:42:10;;;;;;;16.40;14.43;;;;;;;2.70;97.99;92715.44;4907107;28;20563;-72
2021/12/17 08:44:38;;;;;;;14.30;13.03;;;;;;;2.50;98.50;92690.72;4908477;28;20586;-73
2021/12/17 08:47:06;;;;;;;31.30;19.27;;;;;;;2.54;99.54;92698.97;4909547;28;20283;-72
2021/12/17 08:49:34;;;;;;;24.60;16.73;;;;;;;2.56;99.59;92702.28;4914521;28;20553;-73
2021/12/17 08:52:03;;;;;;;15.97;14.03;;;;;;;2.48;99.32;92704.84;4912429;28;20618;-72
2021/12/17 08:54:30;;;;;;;19.63;14.07;;;;;;;2.45;98.89;92693.28;4904346;28;20279;-73
2021/12/17 08:56:57;;;;;;;17.73;12.93;;;;;;;2.18;97.86;92640.41;4907509;28;20487;-72
2021/12/17 08:59:27;;;;;;;17.97;14.70;;;;;;;2.54;98.50;92687.34;4908213;28;20506;-72
2021/12/17 09:01:54;;;;;;;15.90;14.27;;;;;;;2.66;98.80;92696.34;4909654;28;20589;-73
2021/12/17 09:04:21;;;;;;;24.90;15.73;;;;;;;2.72;98.01;92693.78;4908773;28;20597;-73
2021/12/17 09:06:49;;;;;;;15.00;13.60;;;;;;;2.78;97.36;92699.53;4915373;28;20620;-72
2021/12/17 09:09:20;;;;;;;17.73;13.87;;;;;;;2.83;96.63;92687.81;4916059;28;20216;-73
2021/12/17 09:11:48;;;;;;;16.03;13.30;;;;;;;2.83;96.97;92682.00;4913681;28;20627;-73
2021/12/17 09:14:19;;;;;;;40.37;19.40;;;;;;;2.86;95.98;92684.47;4911739;28;20201;-74
2021/12/17 09:16:46;;;;;;;21.77;17.17;;;;;;;2.90;96.52;92664.44;4916344;28;20570;-74
2021/12/17 09:19:14;;;;;;;17.57;15.00;;;;;;;3.03;96.87;92662.63;4916544;28;20228;-73
2021/12/17 09:21:41;;;;;;;22.10;14.90;;;;;;;3.16;95.67;92660.75;4913974;28;20549;-72
2021/12/17 09:24:08;;;;;;;23.10;18.03;;;;;;;3.20;94.23;92657.38;4909556;28;20591;-74
2021/12/17 09:26:37;;;;;;;21.83;18.63;;;;;;;3.33;94.19;92656.34;4905481;28;20202;-73
2021/12/17 09:29:05;;;;;;;18.43;16.57;;;;;;;3.33;94.79;92638.84;4913065;28;20267;-73
2021/12/17 09:31:32;;;;;;;32.60;21.77;;;;;;;3.42;94.56;92641.22;4915219;28;20611;-74
2021/12/17 09:33:59;;;;;;;31.23;18.67;;;;;;;3.21;94.20;92607.41;4907505;28;20578;-74
2021/12/17 09:36:27;;;;;;;20.13;16.87;;;;;;;3.48;93.42;92651.13;4911369;28;20461;-74
2021/12/17 09:38:54;;;;;;;17.10;14.63;;;;;;;3.57;93.46;92643.47;4914083;28;20665;-74
2021/12/17 09:41:22;;;;;;;19.63;15.07;;;;;;;3.44;93.46;92633.69;4911907;28;20590;-74
2021/12/17 09:43:52;;;;;;;25.47;17.20;;;;;;;3.42;93.09;92628.75;4912013;28;20237;-76
2021/12/17 09:46:21;;;;;;;40.63;22.07;;;;;;;3.28;93.78;92610.66;4908632;28;20620;-73
2021/12/17 09:48:50;;;;;;;18.33;15.23;;;;;;;3.26;94.10;92605.69;4913354;28;20499;-75
2021/12/17 09:51:19;;;;;;;24.30;17.60;;;;;;;3.32;94.11;92610.56;4910801;28;20596;-73
2021/12/17 09:53:48;;;;;;;36.40;22.77;;;;;;;3.30;94.30;92608.97;4914181;28;20610;-74
2021/12/17 09:56:16;;;;;;;25.73;19.23;;;;;;;3.15;94.30;92590.06;4913892;28;20610;-74
2021/12/17 09:58:44;;;;;;;22.23;16.80;;;;;;;3.32;94.36;92605.56;4916083;28;20613;-75
2021/12/17 10:01:14;;;;;;;25.43;14.17;;;;;;;3.32;93.87;92613.06;4908422;28;20574;-73
2021/12/17 10:03:41;;;;;;;30.50;16.53;;;;;;;2.87;93.74;92546.44;4915716;28;20606;-75
2021/12/17 10:06:26;;;;;;;14.67;13.33;;;;;;;3.23;94.13;92605.72;4911616;28;20474;-76
2021/12/17 10:08:59;;;;;;;19.67;14.70;;;;;;;3.26;94.32;92592.41;4913730;28;20284;-76
2021/12/17 10:11:27;;;;;;;27.87;15.43;;;;;;;3.23;94.45;92580.78;4916084;28;20226;-76
2021/12/17 10:13:54;;;;;;;16.97;15.57;;;;;;;3.32;94.84;92582.31;4912834;28;20233;-72
2021/12/17 10:16:23;;;;;;;16.90;14.30;;;;;;;3.26;95.14;92560.78;4910951;28;20569;-74
2021/12/17 10:18:51;;;;;;;15.20;12.50;;;;;;;3.22;95.64;92565.81;4909461;28;20464;-73
2021/12/17 10:21:21;;;;;;;20.67;16.40;;;;;;;3.17;95.32;92555.91;4906622;28;20495;-73
2021/12/17 10:23:49;;;;;;;23.50;17.80;;;;;;;3.09;96.29;92545.25;4907964;28;20206;-74
2021/12/17 10:26:19;;;;;;;37.33;24.23;;;;;;;3.08;96.81;92522.78;4914618;28;20548;-74
2021/12/17 10:28:54;;;;;;;31.13;20.43;;;;;;;3.23;96.93;92538.34;4909504;28;20579;-73
2021/12/17 10:31:23;;;;;;;27.53;19.20;;;;;;;3.36;97.52;92528.16;4911382;28;20507;-72
2021/12/17 10:33:51;;;;;;;38.43;22.40;;;;;;;3.41;97.17;92533.88;4906455;28;20485;-73
2021/12/17 10:36:19;;;;;;;27.63;21.57;;;;;;;3.43;96.98;92530.53;4908082;28;20672;-75
2021/12/17 10:38:47;;;;;;;63.03;35.20;;;;;;;3.25;98.41;92519.19;4917174;28;20570;-75
2021/12/17 10:41:15;;;;;;;67.10;33.67;;;;;;;3.33;98.97;92517.34;4913888;28;20205;-74
2021/12/17 10:43:49;;;;;;;54.47;30.83;;;;;;;3.46;99.17;92519.63;4911554;28;20458;-74
2021/12/17 10:46:24;;;;;;;51.17;31.43;;;;;;;3.57;99.11;92526.09;4910720;28;20652;-74
2021/12/17 10:48:57;;;;;;;58.47;32.70;;;;;;;3.53;100.00;92521.19;4910593;28;20566;-74
2021/12/17 10:51:34;;;;;;;57.97;33.93;;;;;;;3.46;100.00;92502.16;4914405;28;20502;-72
2021/12/17 10:54:06;;;;;;;67.80;38.23;;;;;;;3.64;100.00;92521.81;4907214;28;20539;-73
2021/12/17 10:56:35;;;;;;;66.20;35.60;;;;;;;3.71;100.00;92520.84;4907667;28;20593;-74
2021/12/17 10:59:05;;;;;;;63.40;33.90;;;;;;;3.61;100.00;92511.88;4910726;28;20224;-73
2021/12/17 11:01:40;;;;;;;58.93;33.03;;;;;;;3.61;100.00;92509.38;4911847;28;20485;-73
2021/12/17 11:04:15;;;;;;;57.23;33.53;;;;;;;3.57;100.00;92485.31;4918185;28;20193;-74
2021/12/17 11:06:46;;;;;;;142.70;58.07;;;;;;;3.72;100.00;92500.81;4915561;28;20499;-72
2021/12/17 11:09:42;;;;;;;83.30;37.80;;;;;;;3.90;99.51;92506.31;4909151;28;20198;-72
2021/12/17 11:12:28;;;;;;;47.03;20.73;;;;;;;3.87;99.85;92476.41;4910567;28;20734;-73
2021/12/17 11:15:05;;;;;;;36.60;23.43;;;;;;;3.97;100.00;92481.19;4904925;28;20459;-73
2021/12/17 11:17:33;;;;;;;29.90;20.80;;;;;;;4.09;100.00;92493.44;4909302;28;20668;-73
2021/12/17 11:20:05;;;;;;;25.33;17.97;;;;;;;4.20;100.00;92479.88;4909190;28;20566;-74
2021/12/17 11:22:33;;;;;;;28.27;16.93;;;;;;;4.18;100.00;92473.25;4916802;28;20601;-73
2021/12/17 11:25:01;;;;;;;9.83;9.17;;;;;;;4.08;100.00;92470.97;4912539;28;20209;-73
2021/12/17 11:27:29;;;;;;;9.40;8.50;;;;;;;3.90;100.00;92442.19;4907355;28;20581;-75
2021/12/17 11:29:56;;;;;;;8.77;8.07;;;;;;;4.11;100.00;92451.72;4918896;28;20528;-76
2021/12/17 11:32:24;;;;;;;10.80;9.57;;;;;;;4.32;100.00;92457.13;4912987;28;20487;-75
2021/12/17 11:34:51;;;;;;;12.97;9.43;;;;;;;4.38;100.00;92442.81;4914753;28;20481;-75
2021/12/17 11:37:20;;;;;;;13.53;11.03;;;;;;;4.51;100.00;92438.34;4914070;28;20562;-75
2021/12/17 11:39:53;;;;;;;17.10;11.73;;;;;;;4.67;99.84;92454.66;4913837;28;20197;-76
2021/12/17 11:42:41;;;;;;;10.23;9.17;;;;;;;4.70;99.41;92449.56;4905458;28;20649;-76
2021/12/17 11:45:26;;;;;;;10.67;8.17;;;;;;;4.65;100.00;92441.34;4910496;28;20571;-77
2021/12/17 11:47:57;;;;;;;7.30;6.80;;;;;;;4.18;99.39;92349.91;4915625;28;20227;-77
2021/12/17 11:50:25;;;;;;;5.70;5.20;;;;;;;4.33;98.91;92373.75;4910766;28;20467;-76
2021/12/17 11:52:55;;;;;;;5.53;5.20;;;;;;;4.90;98.91;92449.91;4906384;28;20272;-76
2021/12/17 11:55:28;;;;;;;4.00;3.87;;;;;;;4.66;98.51;92402.16;4916626;28;20533;-76
2021/12/17 11:57:58;;;;;;;7.53;5.90;;;;;;;5.00;98.44;92441.34;4918249;28;20593;-76
2021/12/17 12:00:32;;;;;;;7.37;6.80;;;;;;;4.68;98.08;92383.72;4914418;28;20551;-74
2021/12/17 12:03:16;;;;;;;8.07;7.33;;;;;;;5.19;97.59;92450.88;4910066;28;20563;-75
2021/12/17 12:05:45;;;;;;;12.53;8.40;;;;;;;5.15;98.16;92436.78;4909527;28;20217;-74
2021/12/17 12:08:31;;;;;;;7.90;7.20;;;;;;;5.25;97.72;92439.03;4916637;28;20534;-75
2021/12/17 12:11:10;;;;;;;6.13;5.43;;;;;;;5.24;97.50;92424.84;4917747;28;20228;-75
2021/12/17 12:13:40;;;;;;;6.60;6.30;;;;;;;5.18;96.83;92417.53;4911581;28;20493;-77
2021/12/17 12:16:09;;;;;;;9.20;7.30;;;;;;;5.21;96.65;92434.13;4909919;28;20602;-76
2021/12/17 12:18:41;;;;;;;12.07;9.70;;;;;;;5.14;97.19;92415.13;4909645;28;20496;-76
2021/12/17 12:21:09;;;;;;;7.93;7.17;;;;;;;5.00;96.70;92397.97;4914892;28;20228;-77
2021/12/17 12:23:44;;;;;;;17.03;11.40;;;;;;;5.19;96.64;92410.81;4911160;28;20559;-76
2021/12/17 12:26:23;;;;;;;12.13;10.93;;;;;;;5.12;96.71;92411.84;4906244;28;20487;-76
2021/12/17 12:28:57;;;;;;;11.00;10.03;;;;;;;5.05;97.13;92407.84;4917136;28;20275;-77
2021/12/17 12:31:59;;;;;;;15.90;12.83;;;;;;;5.00;98.22;92400.47;4914046;28;20671;-76
2021/12/17 12:34:44;;;;;;;19.27;12.73;;;;;;;4.98;98.04;92392.16;4910796;28;20220;-76
2021/12/17 12:37:24;;;;;;;10.13;8.90;;;;;;;4.99;97.51;92403.81;4909918;28;20648;-76
2021/12/17 12:40:21;;;;;;;17.17;10.47;;;;;;;4.75;98.03;92397.75;4910117;28;20217;-76
2021/12/17 12:42:54;;;;;;;8.50;6.57;;;;;;;4.52;98.48;92373.28;4917342;28;20228;-76
2021/12/17 12:45:23;;;;;;;14.90;11.23;;;;;;;4.75;98.25;92385.22;4917318;28;20562;-76
2021/12/17 12:47:58;;;;;;;7.10;6.60;;;;;;;4.70;98.46;92371.19;4915521;28;20342;-77
2021/12/17 12:50:34;;;;;;;4.77;4.47;;;;;;;4.74;98.15;92383.56;4909904;28;20591;-78
2021/12/17 12:53:09;;;;;;;5.20;4.70;;;;;;;4.72;98.46;92374.47;4909373;28;20656;-77
2021/12/17 12:55:43;;;;;;;4.90;4.47;;;;;;;4.50;97.72;92325.00;4911565;28;20288;-76
2021/12/17 12:58:12;;;;;;;8.00;6.43;;;;;;;4.09;97.85;92258.50;4910763;28;20569;-77
2021/12/17 13:00:48;;;;;;;6.03;5.67;;;;;;;4.11;98.32;92264.25;4907378;28;20494;-77
2021/12/17 13:03:18;;;;;;;5.77;5.37;;;;;;;4.56;98.69;92351.53;4909379;28;20533;-76
2021/12/17 13:05:47;;;;;;;5.40;5.07;;;;;;;4.08;98.91;92299.34;4908614;28;20594;-78
2021/12/17 13:08:16;;;;;;;11.60;8.50;;;;;;;4.24;99.63;92342.28;4916096;28;20475;-76
2021/12/17 13:10:49;;;;;;;10.27;7.03;;;;;;;4.21;99.42;92352.38;4915154;28;20566;-76
2021/12/17 13:13:22;;;;;;;4.87;4.53;;;;;;;4.28;98.67;92356.34;4909032;28;20591;-76
2021/12/17 13:16:03;;;;;;;7.80;7.20;;;;;;;3.85;99.01;92290.72;4911771;28;20581;-77
2021/12/17 13:24:18;;;;;;;7.97;5.43;;;;;;;3.94;100.00;92308.03;4866214;29;20653;-77
2021/12/17 13:26:49;;;;;;;5.07;4.67;;;;;;;4.19;100.00;92329.06;4904630;28;20636;-76
2021/12/17 13:29:21;;;;;;;9.50;8.63;;;;;;;4.00;100.00;92310.38;4916974;28;20224;-75
2021/12/17 13:31:51;;;;;;;4.80;4.37;;;;;;;4.10;100.00;92332.63;4913942;28;20508;-74
2021/12/17 13:34:23;;;;;;;6.40;5.70;;;;;;;4.03;100.00;92305.28;4915604;28;20576;-73
2021/12/17 13:36:59;;;;;;;3.93;3.73;;;;;;;4.16;100.00;92319.97;4916553;28;20566;-75
2021/12/17 13:39:29;;;;;;;10.87;10.00;;;;;;;4.19;99.48;92319.06;4905426;28;20523;-74
2021/12/17 13:41:58;;;;;;;11.70;10.70;;;;;;;4.29;99.52;92329.66;4908783;28;20574;-74
2021/12/17 13:44:32;;;;;;;8.10;7.03;;;;;;;4.12;99.44;92297.56;4906956;28;20583;-75
2021/12/17 13:47:18;;;;;;;14.50;12.10;;;;;;;4.44;98.47;92339.31;4914266;28;20565;-75
2021/12/17 13:49:51;;;;;;;21.70;15.63;;;;;;;4.15;98.19;92308.34;4907512;28;20497;-75
2021/12/17 13:52:22;;;;;;;16.73;10.93;;;;;;;4.24;97.75;92328.97;4911250;28;20229;-74
2021/12/17 13:54:51;;;;;;;37.27;18.70;;;;;;;3.97;97.04;92316.25;4907464;28;20268;-75
2021/12/17 13:57:24;;;;;;;33.13;21.07;;;;;;;3.82;97.75;92325.78;4913764;28;20541;-75
2021/12/17 13:59:53;;;;;;;13.23;11.90;;;;;;;3.98;97.59;92342.06;4916764;28;20594;-75
2021/12/17 14:02:22;;;;;;;11.83;10.67;;;;;;;3.90;96.89;92332.22;4914638;28;20201;-74
2021/12/17 14:05:02;;;;;;;11.60;10.40;;;;;;;3.78;96.96;92309.19;4910079;28;20605;-74
2021/12/17 14:07:30;;;;;;;22.73;15.97;;;;;;;3.74;96.85;92299.28;4911660;28;20527;-74
2021/12/17 14:09:59;;;;;;;18.03;13.87;;;;;;;3.93;97.17;92336.34;4900806;28;20563;-74
2021/12/17 14:12:32;;;;;;;16.00;11.77;;;;;;;3.85;98.46;92336.50;4913826;28;20684;-74
2021/12/17 14:15:01;;;;;;;18.40;13.50;;;;;;;3.82;98.78;92344.09;4908942;28;20570;-75
2021/12/17 14:17:37;;;;;;;25.83;18.03;;;;;;;3.66;99.31;92337.78;4908892;28;20665;-75
2021/12/17 14:20:09;;;;;;;21.97;15.60;;;;;;;3.64;99.80;92341.97;4913717;28;20496;-75
2021/12/17 14:22:38;;;;;;;30.80;20.47;;;;;;;3.55;100.00;92332.19;4912739;28;20552;-76
2021/12/17 14:25:34;;;;;;;27.43;16.73;;;;;;;3.51;100.00;92328.09;4915611;28;20586;-75
2021/12/17 14:28:11;;;;;;;21.40;17.30;;;;;;;3.56;100.00;92321.34;4911939;28;20570;-75
2021/12/17 14:30:40;;;;;;;22.57;15.23;;;;;;;3.44;100.00;92327.41;4906210;28;20237;-76
2021/12/17 14:33:10;;;;;;;12.53;11.33;;;;;;;3.39;100.00;92324.19;4905930;28;20620;-75
2021/12/17 14:35:45;;;;;;;11.00;10.07;;;;;;;3.32;100.00;92320.19;4911972;28;20498;-75
2021/12/17 14:38:12;;;;;;;7.67;7.00;;;;;;;3.25;100.00;92297.03;4908113;28;20491;-74
2021/12/17 14:40:45;;;;;;;9.87;7.77;;;;;;;3.34;100.00;92311.81;4912600;28;20516;-74
2021/12/17 14:43:22;;;;;;;7.40;6.70;;;;;;;3.24;100.00;92297.06;4915459;28;20562;-74
2021/12/17 14:45:57;;;;;;;7.83;7.13;;;;;;;3.13;100.00;92272.31;4915108;28;20566;-73
2021/12/17 14:48:33;;;;;;;21.20;9.27;;;;;;;3.23;100.00;92298.72;4914983;28;20224;-73
2021/12/17 15:05:10;;;;;;;18.70;10.23;;;;;;;2.93;100.00;92289.34;4888254;28;20625;-73
2021/12/17 15:07:38;;;;;;;18.90;13.97;;;;;;;3.08;100.00;92300.72;4905090;28;20591;-73
2021/12/17 15:10:07;;;;;;;13.93;12.30;;;;;;;3.08;100.00;92298.22;4909586;28;20228;-75
2021/12/17 15:12:41;;;;;;;12.70;11.50;;;;;;;3.08;100.00;92305.69;4915981;28;20693;-74
2021/12/17 15:15:16;;;;;;;18.57;11.37;;;;;;;2.88;100.00;92266.16;4916082;28;20279;-74
2021/12/17 15:17:45;;;;;;;9.27;8.53;;;;;;;3.07;100.00;92291.56;4911716;28;20452;-75
2021/12/17 15:20:14;;;;;;;5.97;5.77;;;;;;;3.17;100.00;92303.84;4912165;28;20624;-74
2021/12/17 15:22:42;;;;;;;6.97;6.50;;;;;;;2.84;100.00;92257.09;4910709;28;20272;-74
2021/12/17 15:25:11;;;;;;;8.10;7.37;;;;;;;3.23;100.00;92318.69;4915836;28;20671;-76
2021/12/17 15:27:39;;;;;;;9.63;8.80;;;;;;;3.21;100.00;92319.59;4910965;28;20264;-75
2021/12/17 15:30:12;;;;;;;7.57;7.13;;;;;;;2.87;100.00;92264.53;4906022;28;20509;-75
2021/12/17 15:32:40;;;;;;;25.43;11.17;;;;;;;3.19;100.00;92321.28;4910834;28;20518;-75
2021/12/17 15:35:11;;;;;;;16.43;14.70;;;;;;;2.99;100.00;92284.22;4908442;28;20622;-75
2021/12/17 15:37:39;;;;;;;10.73;9.70;;;;;;;3.12;100.00;92315.59;4917164;28;20201;-74
2021/12/17 15:40:07;;;;;;;14.13;12.73;;;;;;;3.07;100.00;92304.06;4916209;28;20653;-73
2021/12/17 15:42:34;;;;;;;17.70;13.63;;;;;;;3.16;100.00;92328.81;4912131;28;20473;-74
2021/12/17 15:45:02;;;;;;;36.23;18.07;;;;;;;3.11;100.00;92341.38;4908568;28;20626;-74
2021/12/17 15:47:31;;;;;;;25.60;15.63;;;;;;;3.21;100.00;92342.84;4914371;28;20568;-75
2021/12/17 15:49:58;;;;;;;28.30;14.93;;;;;;;3.15;100.00;92335.50;4919044;28;20213;-73
2021/12/17 15:52:27;;;;;;;22.73;17.33;;;;;;;3.30;100.00;92357.66;4912440;28;20240;-75
2021/12/17 15:54:54;;;;;;;19.87;13.43;;;;;;;3.27;100.00;92359.38;4915879;28;20517;-74
2021/12/17 15:57:22;;;;;;;19.70;13.33;;;;;;;2.96;100.00;92313.41;4909187;28;20559;-75
2021/12/17 15:59:49;;;;;;;36.77;24.60;;;;;;;3.17;100.00;92358.75;4915693;28;20590;-76
2021/12/17 16:02:17;;;;;;;28.83;20.53;;;;;;;3.19;100.00;92376.19;4911692;28;20645;-75
2021/12/17 16:04:47;;;;;;;12.50;10.57;;;;;;;3.30;100.00;92387.63;4904709;28;20197;-76
2021/12/17 16:07:15;;;;;;;8.83;8.10;;;;;;;2.86;100.00;92320.28;4914483;28;20676;-76
2021/12/17 16:21:03;;;;;;;1.17;1.17;;;;;;;3.29;97.84;92410.09;4908563;28;20591;-74
2021/12/17 16:23:35;;;;;;;4.50;3.47;;;;;;;3.06;97.70;92377.25;4907233;28;20471;-74
2021/12/17 16:26:03;;;;;;;7.83;5.33;;;;;;;2.73;97.88;92313.84;4910564;28;20507;-75
2021/12/17 16:28:33;;;;;;;5.20;4.70;;;;;;;3.09;98.49;92382.22;4910737;28;20604;-76
2021/12/17 16:31:07;;;;;;;3.80;3.70;;;;;;;3.22;99.32;92399.41;4909907;28;20529;-73
2021/12/17 16:33:34;;;;;;;3.23;3.03;;;;;;;3.04;98.80;92383.97;4906207;28;20222;-77
2021/12/17 16:36:04;;;;;;;2.13;2.13;;;;;;;3.11;98.76;92397.97;4913390;28;20588;-79
2021/12/17 16:38:33;;;;;;;5.73;5.33;;;;;;;2.57;99.18;92312.50;4909386;28;20193;-77
2021/12/17 16:41:02;;;;;;;2.10;2.00;;;;;;;2.90;98.58;92375.06;4909561;28;20210;-77
2021/12/17 16:43:30;;;;;;;1.30;1.30;;;;;;;3.17;98.42;92416.16;4906463;28;20527;-78
2021/12/17 16:46:11;;;;;;;2.43;2.33;;;;;;;2.79;98.42;92366.94;4909940;28;20601;-75
2021/12/17 16:48:41;;;;;;;1.37;1.37;;;;;;;3.20;97.92;92432.75;4912921;28;20540;-77
2021/12/17 16:51:10;;;;;;;2.20;2.10;;;;;;;3.09;95.83;92405.50;4906852;28;20537;-76
2021/12/17 16:53:39;;;;;;;2.40;2.30;;;;;;;2.92;95.79;92370.03;4908445;28;20261;-76
2021/12/17 16:56:07;;;;;;;1.93;1.83;;;;;;;3.05;93.58;92386.41;4906390;28;20505;-76
2021/12/17 16:58:34;;;;;;;2.60;2.50;;;;;;;3.34;92.01;92466.56;4911133;28;20561;-76
2021/12/17 17:01:02;;;;;;;1.43;1.43;;;;;;;3.37;92.03;92442.41;4911054;28;20528;-75
2021/12/17 17:03:30;;;;;;;1.63;1.63;;;;;;;3.27;92.38;92421.78;4909970;28;20509;-75
2021/12/17 17:05:58;;;;;;;2.80;2.70;;;;;;;3.37;92.32;92447.41;4907399;28;20517;-76
2021/12/17 17:08:28;;;;;;;2.13;2.07;;;;;;;3.27;90.89;92445.06;4905682;28;20476;-74
2021/12/17 17:11:01;;;;;;;2.70;2.60;;;;;;;2.87;90.41;92365.13;4911579;28;20602;-74
2021/12/17 17:13:29;;;;;;;2.30;2.20;;;;;;;3.16;90.92;92433.63;4913975;28;20524;-75
2021/12/17 17:15:59;;;;;;;2.50;2.30;;;;;;;3.32;91.15;92460.78;4912474;28;20590;-76
2021/12/17 17:18:26;;;;;;;2.43;2.23;;;;;;;3.16;90.61;92431.97;4913200;28;20246;-74
2021/12/17 17:20:54;;;;;;;2.00;1.70;;;;;;;3.13;90.06;92428.72;4911711;28;20498;-75
2021/12/17 17:23:21;;;;;;;2.77;2.57;;;;;;;3.31;91.15;92454.16;4903258;28;20225;-74
2021/12/17 17:25:50;;;;;;;2.03;1.93;;;;;;;3.31;91.23;92459.16;4909584;28;20602;-72
2021/12/17 17:28:17;;;;;;;1.60;1.50;;;;;;;3.36;90.94;92458.25;4911646;28;20562;-75
2021/12/17 17:30:45;;;;;;;1.17;1.17;;;;;;;3.20;90.94;92427.75;4909694;28;20544;-75
2021/12/17 17:33:13;;;;;;;1.80;1.80;;;;;;;3.34;91.04;92456.59;4904839;28;20528;-75
2021/12/17 17:35:41;;;;;;;1.50;1.40;;;;;;;3.29;91.38;92442.56;4912192;28;20576;-75
2021/12/17 17:38:08;;;;;;;3.53;1.87;;;;;;;3.34;91.30;92463.25;4906033;28;20656;-75
2021/12/17 17:40:37;;;;;;;1.70;1.67;;;;;;;3.21;91.87;92455.16;4916439;28;20605;-75
2021/12/17 17:43:08;;;;;;;1.30;1.20;;;;;;;3.21;91.30;92459.34;4913570;28;20555;-74
2021/12/17 17:45:37;;;;;;;1.33;1.33;;;;;;;3.06;92.20;92457.09;4912109;28;20688;-74
2021/12/17 17:48:06;;;;;;;1.43;1.43;;;;;;;3.02;92.19;92458.84;4909608;28;20653;-72
2021/12/17 17:50:36;;;;;;;1.93;1.53;;;;;;;2.92;92.44;92459.84;4906124;28;20209;-72
2021/12/17 17:53:05;;;;;;;1.73;1.63;;;;;;;2.90;92.31;92459.03;4911959;28;20621;-72
2021/12/17 17:55:35;;;;;;;3.17;1.87;;;;;;;2.98;92.63;92479.72;4907034;28;20637;-72
2021/12/17 17:58:02;;;;;;;1.83;1.77;;;;;;;2.94;91.75;92483.09;4904935;28;20569;-73
2021/12/17 18:00:31;;;;;;;1.97;1.87;;;;;;;2.81;92.22;92459.22;4896990;28;20559;-72
2021/12/17 18:02:59;;;;;;;3.37;3.27;;;;;;;2.90;92.74;92472.34;4914535;28;20656;-72
2021/12/17 18:05:26;;;;;;;1.90;1.67;;;;;;;2.88;91.97;92473.22;4911744;28;20472;-72
2021/12/17 18:07:54;;;;;;;1.90;1.80;;;;;;;2.80;91.44;92473.34;4919097;28;20549;-73
2021/12/17 18:10:21;;;;;;;2.03;1.93;;;;;;;2.80;91.66;92465.03;4909767;28;20260;-71
2021/12/17 18:12:51;;;;;;;1.23;1.23;;;;;;;2.84;91.80;92482.44;4916725;28;20246;-71
2021/12/17 18:15:20;;;;;;;1.23;1.23;;;;;;;2.82;92.23;92473.31;4916087;28;20503;-72
2021/12/17 18:17:49;;;;;;;1.37;1.37;;;;;;;2.80;91.19;92487.50;4912762;28;20630;-72
